Time;durP1;ratioP1;P1;durP2;ratioP2;P2;SDS_P1;SDS_P2;PMS_P1;PMS_P2;Temp;Humidity;BMP_temperature;BMP_pressure;BME280_temperature;BME280_humidity;BME280_pressure;Samples;Min_cycle;Max_cycle;Signal;HPM_P1;HPM_P2
2022/11/18 00:02:42;;;;;;;2.40;2.30;;;4.00;99.90;;;;;;6390318;27;20301;-67
2022/11/18 00:05:54;;;;;;;2.80;2.60;;;4.00;99.90;;;;;;6390287;27;20290;-67
2022/11/18 00:09:01;;;;;;;2.20;2.20;;;4.10;99.90;;;;;;6390165;27;20323;-67
2022/11/18 00:15:28;;;;;;;1.97;1.97;;;4.10;99.90;;;;;;6389905;27;20296;-67
2022/11/18 00:18:35;;;;;;;2.10;2.00;;;4.10;99.90;;;;;;6389864;27;20294;-66
2022/11/18 00:21:41;;;;;;;1.70;1.70;;;4.20;99.90;;;;;;6390395;27;20471;-66
2022/11/18 00:24:47;;;;;;;2.20;2.10;;;4.20;99.90;;;;;;6389674;27;20302;-67
2022/11/18 00:27:52;;;;;;;2.27;2.07;;;4.20;99.90;;;;;;6389674;27;20276;-66
2022/11/18 00:31:02;;;;;;;1.73;1.70;;;4.30;99.90;;;;;;6389075;27;20276;-67
2022/11/18 00:34:10;;;;;;;1.53;1.53;;;4.20;99.90;;;;;;6387953;27;20298;-68
2022/11/18 00:37:15;;;;;;;1.10;1.10;;;4.20;99.90;;;;;;6390286;27;20266;-66
2022/11/18 00:40:21;;;;;;;1.07;1.07;;;4.20;99.90;;;;;;6388964;27;20302;-66
2022/11/18 00:43:26;;;;;;;0.97;0.97;;;4.20;99.90;;;;;;6389343;27;20295;-67
2022/11/18 00:46:31;;;;;;;1.27;1.13;;;4.30;99.90;;;;;;6390089;27;20271;-66
2022/11/18 00:49:36;;;;;;;1.10;1.10;;;4.40;99.90;;;;;;6389341;27;20289;-66
2022/11/18 00:52:41;;;;;;;1.10;1.10;;;4.40;99.90;;;;;;6389313;27;20273;-67
2022/11/18 00:55:47;;;;;;;1.10;1.10;;;4.40;99.90;;;;;;6388743;27;20298;-67
2022/11/18 00:58:52;;;;;;;1.00;1.00;;;4.40;99.90;;;;;;6388528;27;20294;-67
2022/11/18 01:01:56;;;;;;;0.97;0.97;;;4.50;99.90;;;;;;6389473;27;20297;-67
2022/11/18 01:05:01;;;;;;;0.80;0.80;;;4.40;99.90;;;;;;6388878;27;20289;-68
2022/11/18 01:08:06;;;;;;;0.90;0.90;;;4.40;99.90;;;;;;6388322;27;20263;-67
2022/11/18 01:14:35;;;;;;;0.90;0.90;;;4.40;99.90;;;;;;6388480;27;20303;-67
2022/11/18 01:17:41;;;;;;;0.87;0.87;;;4.40;99.90;;;;;;6389200;27;20275;-66
2022/11/18 01:20:46;;;;;;;0.80;0.80;;;4.40;99.90;;;;;;6387948;27;20302;-67
2022/11/18 01:23:52;;;;;;;0.80;0.80;;;4.40;99.90;;;;;;6388267;27;20291;-66
2022/11/18 01:26:58;;;;;;;3.60;0.80;;;4.50;99.90;;;;;;6388907;27;20440;-67
2022/11/18 01:30:03;;;;;;;0.90;0.90;;;4.50;99.90;;;;;;6388058;27;20299;-67
2022/11/18 01:33:11;;;;;;;0.80;0.80;;;4.50;99.90;;;;;;6370467;27;20267;-67
2022/11/18 01:36:18;;;;;;;0.73;0.73;;;4.40;99.90;;;;;;6388408;27;20270;-67
2022/11/18 01:39:23;;;;;;;0.80;0.80;;;4.50;99.90;;;;;;6387895;27;20294;-66
2022/11/18 01:42:29;;;;;;;0.70;0.70;;;4.50;99.90;;;;;;6387919;27;20290;-66
2022/11/18 01:45:35;;;;;;;1.60;1.00;;;4.50;99.90;;;;;;6387263;27;20295;-66
2022/11/18 01:48:40;;;;;;;0.80;0.80;;;4.60;99.90;;;;;;6387381;27;20469;-66
2022/11/18 01:51:50;;;;;;;0.80;0.80;;;4.60;99.90;;;;;;6388116;27;20291;-66
2022/11/18 01:54:59;;;;;;;1.00;0.90;;;4.60;99.90;;;;;;6387270;27;20302;-66
2022/11/18 01:58:09;;;;;;;0.73;0.73;;;4.50;99.90;;;;;;6387448;27;20301;-66
2022/11/18 02:01:15;;;;;;;0.70;0.70;;;4.50;99.90;;;;;;6388133;27;20304;-66
2022/11/18 02:04:19;;;;;;;1.00;1.00;;;4.40;99.90;;;;;;6386919;27;20575;-66
2022/11/18 02:07:25;;;;;;;0.90;0.80;;;4.50;99.90;;;;;;6388073;27;20264;-66
2022/11/18 02:10:30;;;;;;;0.87;0.87;;;4.60;99.90;;;;;;6387210;27;20299;-67
2022/11/18 02:13:36;;;;;;;1.00;1.00;;;4.50;99.90;;;;;;6386868;27;20565;-66
2022/11/18 02:16:56;;;;;;;0.83;0.83;;;4.50;99.90;;;;;;6387838;27;20270;-66
2022/11/18 02:20:28;;;;;;;0.93;0.80;;;4.60;99.90;;;;;;6387114;27;20476;-66
2022/11/18 02:24:17;;;;;;;0.80;0.80;;;4.60;99.90;;;;;;6375426;27;20422;-66
2022/11/18 02:28:25;;;;;;;0.77;0.77;;;4.50;99.90;;;;;;6387412;27;20467;-66
2022/11/18 02:31:34;;;;;;;0.80;0.80;;;4.50;99.90;;;;;;6348942;27;20270;-67
2022/11/18 02:34:48;;;;;;;0.70;0.70;;;4.50;99.90;;;;;;6386608;27;20302;-67
2022/11/18 02:37:57;;;;;;;1.33;0.83;;;4.40;99.90;;;;;;6386169;27;20263;-68
2022/11/18 02:41:06;;;;;;;0.90;0.90;;;4.60;99.90;;;;;;6386834;27;20269;-67
2022/11/18 02:44:14;;;;;;;1.10;1.10;;;4.50;99.90;;;;;;6386701;27;20298;-67
2022/11/18 02:47:21;;;;;;;0.80;0.80;;;4.60;99.90;;;;;;6386968;27;20457;-67
2022/11/18 02:50:28;;;;;;;2.40;1.10;;;4.60;99.90;;;;;;6386076;27;20306;-67
2022/11/18 02:53:33;;;;;;;1.10;1.10;;;4.60;99.90;;;;;;6386070;27;20301;-67
2022/11/18 02:56:38;;;;;;;0.93;0.90;;;4.60;99.90;;;;;;6385783;27;20267;-67
2022/11/18 02:59:43;;;;;;;4.50;1.10;;;4.60;99.90;;;;;;6386221;27;20299;-67
2022/11/18 03:02:50;;;;;;;1.10;1.00;;;4.60;99.90;;;;;;6386617;27;20303;-68
2022/11/18 03:06:07;;;;;;;0.90;0.90;;;4.60;99.90;;;;;;6385846;27;20275;-67
2022/11/18 03:09:20;;;;;;;1.20;1.00;;;4.60;99.90;;;;;;6385966;27;20299;-67
2022/11/18 03:12:34;;;;;;;1.40;1.30;;;4.50;99.90;;;;;;6376834;28;20268;-67
2022/11/18 03:15:49;;;;;;;1.43;1.10;;;4.60;99.90;;;;;;6386123;28;20298;-67
2022/11/18 03:19:01;;;;;;;1.30;1.20;;;4.50;99.90;;;;;;6385676;28;20294;-67
2022/11/18 03:22:13;;;;;;;1.27;1.20;;;4.50;99.90;;;;;;6386133;28;20267;-67
2022/11/18 03:25:24;;;;;;;1.20;1.20;;;4.40;99.90;;;;;;6385804;28;20297;-67
2022/11/18 03:28:32;;;;;;;1.20;1.20;;;4.50;99.90;;;;;;6385600;28;20583;-67
2022/11/18 03:31:41;;;;;;;1.40;1.40;;;4.50;99.90;;;;;;6385870;28;20266;-67
2022/11/18 03:34:50;;;;;;;1.13;1.13;;;4.50;99.90;;;;;;6385619;28;20466;-67
2022/11/18 03:37:59;;;;;;;1.30;1.30;;;4.40;99.90;;;;;;6385546;28;20323;-67
2022/11/18 03:41:08;;;;;;;1.20;1.20;;;4.30;99.90;;;;;;6386387;28;20267;-67
2022/11/18 03:44:19;;;;;;;1.50;1.40;;;4.40;99.90;;;;;;6385647;28;20305;-67
2022/11/18 03:47:29;;;;;;;1.50;1.40;;;4.40;99.90;;;;;;6386269;28;20393;-67
2022/11/18 03:50:41;;;;;;;2.27;1.20;;;4.40;99.90;;;;;;6385734;28;20311;-68
2022/11/18 03:53:52;;;;;;;1.23;1.20;;;4.30;99.90;;;;;;6385637;28;20298;-66
2022/11/18 03:57:01;;;;;;;1.37;1.27;;;4.30;99.90;;;;;;6386035;28;20535;-66
2022/11/18 04:00:09;;;;;;;1.33;1.33;;;4.40;99.90;;;;;;6384830;28;20300;-67
2022/11/18 04:03:14;;;;;;;1.13;1.13;;;4.30;99.90;;;;;;6382133;28;20458;-67
2022/11/18 04:06:25;;;;;;;1.30;1.30;;;4.30;99.90;;;;;;6367897;28;20258;-67
2022/11/18 04:09:37;;;;;;;1.30;1.20;;;4.30;99.90;;;;;;6387520;27;20297;-67
2022/11/18 04:12:46;;;;;;;1.37;1.27;;;4.30;99.90;;;;;;6390380;27;20294;-67
2022/11/18 04:15:52;;;;;;;3.43;1.30;;;4.30;99.90;;;;;;6390176;27;20271;-67
2022/11/18 04:18:56;;;;;;;1.30;1.10;;;4.20;99.90;;;;;;6389549;27;20311;-67
2022/11/18 04:22:13;;;;;;;1.60;1.37;;;4.20;99.90;;;;;;6389377;27;20522;-67
2022/11/18 04:25:18;;;;;;;1.33;1.30;;;4.20;99.90;;;;;;6389625;27;20295;-66
2022/11/18 04:28:23;;;;;;;1.60;1.60;;;4.10;99.90;;;;;;6389321;27;20613;-67
2022/11/18 04:31:28;;;;;;;2.10;1.30;;;4.20;99.90;;;;;;6389792;27;20561;-66
2022/11/18 04:34:33;;;;;;;1.17;1.17;;;4.30;99.90;;;;;;6389760;27;20297;-67
2022/11/18 04:37:39;;;;;;;1.20;1.20;;;4.20;99.90;;;;;;6389631;27;20287;-67
2022/11/18 04:40:44;;;;;;;1.17;1.17;;;4.20;99.90;;;;;;6389578;27;20275;-66
2022/11/18 04:43:48;;;;;;;1.50;1.50;;;4.30;99.90;;;;;;6389011;27;20304;-66
2022/11/18 04:46:54;;;;;;;2.83;1.43;;;4.40;99.90;;;;;;6390061;27;20266;-66
2022/11/18 04:49:59;;;;;;;1.23;1.23;;;4.40;99.90;;;;;;6388301;27;20283;-66
2022/11/18 04:53:05;;;;;;;1.53;1.40;;;4.40;99.90;;;;;;6389168;27;20315;-66
2022/11/18 04:56:12;;;;;;;1.37;1.23;;;4.40;99.90;;;;;;6389783;27;20578;-66
2022/11/18 04:59:20;;;;;;;1.30;1.30;;;4.30;99.90;;;;;;6389319;27;20295;-67
2022/11/18 05:02:25;;;;;;;1.17;1.17;;;4.30;99.90;;;;;;6389328;27;20287;-67
2022/11/18 05:05:29;;;;;;;2.13;1.37;;;4.30;99.90;;;;;;6389485;27;20291;-67
2022/11/18 05:08:36;;;;;;;2.20;1.30;;;4.30;99.90;;;;;;6388860;27;20294;-67
2022/11/18 05:15:03;;;;;;;1.30;1.30;;;4.40;99.90;;;;;;6388531;27;20349;-67
2022/11/18 05:18:13;;;;;;;1.10;1.10;;;4.50;99.90;;;;;;6388315;27;20302;-67
2022/11/18 05:21:19;;;;;;;1.00;1.00;;;4.50;99.90;;;;;;6388567;27;20270;-67
2022/11/18 05:24:25;;;;;;;1.40;1.30;;;4.40;99.90;;;;;;6388387;27;20299;-67
2022/11/18 05:27:30;;;;;;;1.30;1.30;;;4.40;99.90;;;;;;6388139;27;20289;-67
2022/11/18 05:30:35;;;;;;;1.10;1.10;;;4.30;99.90;;;;;;6388369;27;20266;-67
2022/11/18 05:33:41;;;;;;;1.10;1.10;;;4.40;99.90;;;;;;6388227;27;20291;-67
2022/11/18 05:36:46;;;;;;;2.97;1.40;;;4.40;99.90;;;;;;6388467;27;20282;-67
2022/11/18 05:39:52;;;;;;;1.70;1.13;;;4.50;99.90;;;;;;6388189;27;20303;-66
2022/11/18 05:43:12;;;;;;;1.17;1.17;;;4.40;99.90;;;;;;6387850;27;20294;-66
2022/11/18 05:46:17;;;;;;;1.30;1.20;;;4.30;99.90;;;;;;6388405;27;20287;-66
2022/11/18 05:49:22;;;;;;;3.30;1.30;;;4.30;99.90;;;;;;6387597;27;20390;-66
2022/11/18 05:52:26;;;;;;;1.73;1.43;;;4.30;99.90;;;;;;6387776;27;20294;-66
2022/11/18 05:55:38;;;;;;;1.47;1.47;;;4.30;99.90;;;;;;6387891;27;20460;-67
2022/11/18 05:58:43;;;;;;;1.50;1.40;;;4.30;99.90;;;;;;6387277;27;20299;-66
2022/11/18 06:01:53;;;;;;;1.10;1.10;;;4.30;99.90;;;;;;6388054;27;20296;-65
2022/11/18 06:04:59;;;;;;;1.10;1.10;;;4.30;99.90;;;;;;6387096;27;20285;-66
2022/11/18 06:08:05;;;;;;;1.80;1.40;;;4.30;99.90;;;;;;6387506;27;20615;-67
2022/11/18 06:11:14;;;;;;;1.13;1.13;;;4.30;99.90;;;;;;6387874;27;20416;-66
2022/11/18 06:14:23;;;;;;;1.13;1.13;;;4.20;99.90;;;;;;6387428;27;20299;-66
2022/11/18 06:17:30;;;;;;;1.23;1.13;;;4.20;99.90;;;;;;6386859;27;20293;-67
2022/11/18 06:20:37;;;;;;;1.60;1.10;;;4.20;99.90;;;;;;6388018;27;20266;-67
2022/11/18 06:23:43;;;;;;;2.53;1.10;;;4.00;99.90;;;;;;6386907;27;20369;-67
2022/11/18 06:26:49;;;;;;;1.10;1.10;;;4.00;99.90;;;;;;6369042;27;20289;-67
2022/11/18 06:29:54;;;;;;;1.10;1.10;;;3.90;99.90;;;;;;6386243;27;20318;-66
2022/11/18 06:32:59;;;;;;;1.20;1.20;;;3.80;99.90;;;;;;6386116;27;20482;-66
2022/11/18 06:36:04;;;;;;;1.13;1.13;;;3.80;99.90;;;;;;6386436;27;20266;-67
2022/11/18 06:39:09;;;;;;;1.20;1.10;;;3.80;99.90;;;;;;6386653;27;20609;-66
2022/11/18 06:45:35;;;;;;;1.20;1.20;;;3.70;99.90;;;;;;6386801;27;20295;-67
2022/11/18 06:48:40;;;;;;;2.53;1.23;;;3.70;99.90;;;;;;6386434;27;20311;-66
2022/11/18 06:51:44;;;;;;;1.20;1.20;;;3.70;99.90;;;;;;6386473;27;20451;-67
2022/11/18 06:54:49;;;;;;;1.60;1.60;;;3.60;99.90;;;;;;6386369;27;20302;-67
2022/11/18 06:57:57;;;;;;;1.30;1.30;;;3.60;99.90;;;;;;6386229;27;20293;-67
2022/11/18 07:01:11;;;;;;;1.23;1.23;;;3.60;99.90;;;;;;6386550;27;20289;-67
2022/11/18 07:04:16;;;;;;;1.40;1.30;;;3.60;99.90;;;;;;6386361;27;20673;-66
2022/11/18 07:07:20;;;;;;;1.30;1.30;;;3.70;99.90;;;;;;6385744;27;20600;-66
2022/11/18 07:10:25;;;;;;;1.27;1.27;;;3.70;99.90;;;;;;6386176;27;20440;-67
2022/11/18 07:13:32;;;;;;;1.33;1.33;;;3.70;99.90;;;;;;6386253;27;20313;-67
2022/11/18 07:16:37;;;;;;;1.40;1.30;;;3.60;99.90;;;;;;6368506;28;20277;-67
2022/11/18 07:19:42;;;;;;;1.50;1.50;;;3.70;99.90;;;;;;6386035;28;20292;-67
2022/11/18 07:22:47;;;;;;;1.60;1.60;;;3.70;99.90;;;;;;6385761;28;20474;-66
2022/11/18 07:25:55;;;;;;;1.30;1.30;;;3.70;99.90;;;;;;6385653;28;20285;-66
2022/11/18 07:29:01;;;;;;;1.80;1.37;;;3.70;99.90;;;;;;6385979;28;20296;-67
2022/11/18 07:32:06;;;;;;;1.57;1.30;;;3.80;99.90;;;;;;6385792;28;20270;-67
2022/11/18 07:35:12;;;;;;;1.37;1.37;;;3.80;99.90;;;;;;6386435;28;20269;-67
2022/11/18 07:38:17;;;;;;;1.67;1.23;;;3.80;99.90;;;;;;6385718;28;20305;-66
2022/11/18 07:41:23;;;;;;;2.70;1.33;;;3.80;99.90;;;;;;6385994;28;20268;-67
2022/11/18 07:44:29;;;;;;;1.50;1.50;;;3.80;99.90;;;;;;6389169;27;20293;-66
2022/11/18 07:47:35;;;;;;;1.37;1.37;;;3.80;99.90;;;;;;6390688;27;20686;-67
2022/11/18 07:50:39;;;;;;;1.37;1.30;;;3.80;99.90;;;;;;6391479;27;20268;-67
2022/11/18 07:53:51;;;;;;;3.93;3.63;;;3.80;99.90;;;;;;6390746;27;20293;-67
2022/11/18 07:56:55;;;;;;;1.10;1.10;;;3.90;99.90;;;;;;6390136;27;20403;-68
2022/11/18 08:00:03;;;;;;;1.30;1.30;;;3.90;99.90;;;;;;6391126;27;20437;-67
2022/11/18 08:03:15;;;;;;;1.50;1.30;;;3.80;99.90;;;;;;6390333;27;20461;-67
2022/11/18 08:06:20;;;;;;;1.30;1.30;;;3.80;99.90;;;;;;6390668;27;20484;-67
2022/11/18 08:09:25;;;;;;;1.10;1.10;;;3.70;99.90;;;;;;6390261;27;20285;-67
2022/11/18 08:12:30;;;;;;;1.47;1.27;;;3.70;99.90;;;;;;6364998;28;20295;-67
2022/11/18 08:15:40;;;;;;;1.20;1.10;;;3.70;99.90;;;;;;6365118;28;20267;-67
2022/11/18 08:18:46;;;;;;;1.20;1.20;;;3.70;99.90;;;;;;6364269;28;20290;-66
2022/11/18 08:21:50;;;;;;;2.17;1.27;;;3.60;99.90;;;;;;6364550;28;20267;-67
2022/11/18 08:24:55;;;;;;;1.30;1.20;;;3.50;99.90;;;;;;6363989;28;20265;-66
2022/11/18 08:28:00;;;;;;;1.20;1.20;;;3.60;99.90;;;;;;6364227;28;20293;-67
2022/11/18 08:31:11;;;;;;;1.23;1.23;;;3.60;99.90;;;;;;6364551;28;20266;-68
2022/11/18 08:34:16;;;;;;;1.50;1.40;;;3.60;99.90;;;;;;6364031;28;20617;-66
2022/11/18 08:37:21;;;;;;;1.30;1.30;;;3.70;99.90;;;;;;6363757;28;20289;-67
2022/11/18 08:40:26;;;;;;;1.40;1.40;;;3.70;99.90;;;;;;6364391;28;20266;-66
2022/11/18 08:43:33;;;;;;;1.17;1.17;;;3.70;99.90;;;;;;6363518;28;20286;-67
2022/11/18 08:46:39;;;;;;;1.37;1.30;;;3.70;99.90;;;;;;6364260;28;20316;-67
2022/11/18 08:49:44;;;;;;;1.50;1.40;;;3.70;99.90;;;;;;6363956;28;20294;-67
2022/11/18 08:52:48;;;;;;;1.20;1.20;;;3.70;99.90;;;;;;6363910;28;20368;-66
2022/11/18 08:55:56;;;;;;;1.37;1.37;;;3.70;99.90;;;;;;6363278;28;20268;-67
2022/11/18 08:59:01;;;;;;;1.73;1.50;;;3.60;99.90;;;;;;6363231;28;20479;-67
2022/11/18 09:02:14;;;;;;;1.50;1.40;;;3.60;99.90;;;;;;6363516;28;20298;-67
2022/11/18 09:05:19;;;;;;;1.20;1.20;;;3.70;99.90;;;;;;6363522;28;20276;-67
2022/11/18 09:08:25;;;;;;;1.30;1.30;;;3.60;99.90;;;;;;6362950;28;20297;-66
2022/11/18 09:11:30;;;;;;;1.20;1.20;;;3.70;99.90;;;;;;6363417;27;20273;-66
2022/11/18 09:14:35;;;;;;;2.30;1.40;;;3.70;99.90;;;;;;6388844;27;20593;-66
2022/11/18 09:18:01;;;;;;;1.23;1.23;;;3.70;99.90;;;;;;6388430;27;20296;-66
2022/11/18 09:21:08;;;;;;;1.83;1.53;;;3.70;99.90;;;;;;6388950;27;20267;-67
2022/11/18 09:24:13;;;;;;;1.30;1.30;;;3.70;99.90;;;;;;6388608;27;20292;-67
2022/11/18 09:27:18;;;;;;;1.40;1.40;;;3.80;99.90;;;;;;6388007;27;20380;-67
2022/11/18 09:30:23;;;;;;;1.40;1.30;;;3.70;99.90;;;;;;6388513;27;20286;-67
2022/11/18 09:33:30;;;;;;;1.60;1.47;;;3.80;99.90;;;;;;6370231;27;20304;-67
2022/11/18 09:36:34;;;;;;;1.10;1.10;;;3.80;99.90;;;;;;6388793;27;20267;-68
2022/11/18 09:39:39;;;;;;;2.03;1.40;;;3.70;99.90;;;;;;6388277;27;20293;-68
2022/11/18 09:42:56;;;;;;;1.43;1.40;;;3.70;99.90;;;;;;6387703;27;20329;-66
2022/11/18 09:46:10;;;;;;;1.50;1.50;;;3.80;99.90;;;;;;6387901;27;20273;-66
2022/11/18 09:49:24;;;;;;;3.17;3.00;;;3.80;99.90;;;;;;6387034;27;20578;-66
2022/11/18 09:52:33;;;;;;;1.97;1.80;;;3.80;99.90;;;;;;6387713;27;20303;-67
2022/11/18 09:55:40;;;;;;;5.63;1.73;;;3.80;99.90;;;;;;6387894;27;20266;-68
2022/11/18 09:58:45;;;;;;;1.70;1.50;;;3.90;99.90;;;;;;6387722;27;20293;-68
2022/11/18 10:01:52;;;;;;;1.60;1.50;;;3.80;99.90;;;;;;6387632;27;20431;-67
2022/11/18 10:05:13;;;;;;;1.70;1.60;;;3.90;99.90;;;;;;6387311;27;20564;-67
2022/11/18 10:08:25;;;;;;;1.40;1.40;;;3.90;99.90;;;;;;6387405;27;20305;-67
2022/11/18 10:11:37;;;;;;;1.37;1.37;;;4.00;99.90;;;;;;6387937;27;20264;-67
2022/11/18 10:15:04;;;;;;;1.33;1.30;;;4.00;99.90;;;;;;6387262;27;20308;-67
2022/11/18 10:18:22;;;;;;;1.20;1.20;;;4.10;99.90;;;;;;6386980;27;20481;-67
2022/11/18 10:22:00;;;;;;;1.40;1.30;;;4.00;99.90;;;;;;6387755;27;20458;-67
2022/11/18 10:25:12;;;;;;;2.50;2.30;;;4.00;99.90;;;;;;6386643;27;20270;-67
2022/11/18 10:28:22;;;;;;;3.53;3.10;;;4.10;99.90;;;;;;6386049;27;20298;-67
2022/11/18 10:31:26;;;;;;;2.07;1.90;;;4.00;99.90;;;;;;6387002;27;20284;-67
2022/11/18 10:34:32;;;;;;;1.60;1.60;;;4.00;99.90;;;;;;6386301;27;20297;-66
2022/11/18 10:37:38;;;;;;;1.60;1.60;;;4.00;99.90;;;;;;6386817;27;20296;-67
2022/11/18 10:41:05;;;;;;;4.33;3.80;;;4.00;99.90;;;;;;6387174;27;20271;-67
2022/11/18 10:44:31;;;;;;;1.90;1.90;;;3.90;99.90;;;;;;6386380;27;20617;-67
2022/11/18 10:47:36;;;;;;;1.93;1.60;;;3.80;99.90;;;;;;6386430;27;20299;-67
2022/11/18 10:50:42;;;;;;;2.40;1.70;;;3.90;99.90;;;;;;6386833;27;20265;-67
2022/11/18 10:53:48;;;;;;;1.20;1.20;;;3.90;99.90;;;;;;6386687;27;20297;-67
2022/11/18 10:56:56;;;;;;;1.47;1.47;;;4.00;99.90;;;;;;6386935;27;20308;-66
2022/11/18 11:00:04;;;;;;;1.20;1.20;;;4.10;99.90;;;;;;6385851;27;20448;-66
2022/11/18 11:03:38;;;;;;;1.90;1.90;;;4.00;99.90;;;;;;6385030;27;20297;-67
2022/11/18 11:06:43;;;;;;;1.50;1.33;;;4.00;99.90;;;;;;6328329;27;20265;-67
2022/11/18 11:10:01;;;;;;;1.60;1.60;;;4.00;99.90;;;;;;6385571;27;20571;-67
2022/11/18 11:13:13;;;;;;;2.07;2.00;;;4.00;99.90;;;;;;6386118;27;20615;-67
2022/11/18 11:16:20;;;;;;;1.60;1.50;;;4.00;99.90;;;;;;6386257;28;20269;-67
2022/11/18 11:19:40;;;;;;;2.03;2.03;;;4.10;99.90;;;;;;6385117;27;20292;-68
2022/11/18 11:22:45;;;;;;;3.00;1.60;;;4.10;99.90;;;;;;6386725;28;20298;-66
2022/11/18 11:25:56;;;;;;;2.13;1.30;;;4.10;99.90;;;;;;6386310;28;20267;-67
2022/11/18 11:30:01;;;;;;;1.83;1.60;;;4.10;99.90;;;;;;6385504;28;20315;-68
2022/11/18 11:33:29;;;;;;;1.80;1.80;;;4.10;99.90;;;;;;6385999;28;20469;-67
2022/11/18 11:36:45;;;;;;;1.40;1.40;;;4.10;99.90;;;;;;6386232;28;20267;-67
2022/11/18 11:40:04;;;;;;;1.83;1.73;;;4.10;99.90;;;;;;6385922;28;20302;-68
2022/11/18 11:43:26;;;;;;;1.67;1.57;;;4.00;99.90;;;;;;6385753;28;20299;-68
2022/11/18 11:46:38;;;;;;;1.50;1.20;;;4.00;99.90;;;;;;6385450;28;20271;-67
2022/11/18 11:49:53;;;;;;;1.50;1.50;;;3.90;99.90;;;;;;6385866;28;20585;-68
2022/11/18 11:53:16;;;;;;;1.90;1.30;;;3.90;99.90;;;;;;6385856;28;20306;-67
2022/11/18 11:56:28;;;;;;;1.37;1.10;;;4.00;99.90;;;;;;6386047;28;20274;-68
2022/11/18 11:59:43;;;;;;;1.00;1.00;;;4.00;99.90;;;;;;6385627;28;20480;-68
2022/11/18 12:03:07;;;;;;;1.13;1.13;;;3.80;99.90;;;;;;6384945;28;20298;-68
2022/11/18 12:06:12;;;;;;;2.00;1.17;;;3.90;99.90;;;;;;6385360;28;20340;-68
2022/11/18 12:09:21;;;;;;;1.33;1.00;;;3.90;99.90;;;;;;6385251;28;20387;-67
2022/11/18 12:12:37;;;;;;;1.23;1.13;;;3.90;99.90;;;;;;6385756;28;20286;-67
2022/11/18 12:15:55;;;;;;;1.00;1.00;;;3.90;99.90;;;;;;6386152;28;20399;-68
2022/11/18 12:19:03;;;;;;;1.10;1.10;;;3.90;99.90;;;;;;6385205;28;20294;-68
2022/11/18 12:22:09;;;;;;;0.93;0.93;;;3.80;99.90;;;;;;6385436;28;20304;-68
2022/11/18 12:25:51;;;;;;;1.00;1.00;;;3.80;99.90;;;;;;6386058;28;20263;-67
2022/11/18 12:29:22;;;;;;;1.00;1.00;;;3.80;99.90;;;;;;6385368;27;20309;-67
2022/11/18 12:32:40;;;;;;;0.97;0.90;;;3.80;99.90;;;;;;6389728;27;20285;-66
2022/11/18 12:35:48;;;;;;;0.90;0.90;;;3.70;99.90;;;;;;6390283;27;20271;-68
2022/11/18 12:38:53;;;;;;;1.00;1.00;;;3.70;99.90;;;;;;6389693;27;20298;-67
2022/11/18 12:45:58;;;;;;;1.20;1.20;;;3.70;99.90;;;;;;6371354;27;20463;-67
2022/11/18 12:50:10;;;;;;;1.00;1.00;;;3.80;99.90;;;;;;6388649;27;20591;-68
2022/11/18 12:53:36;;;;;;;2.27;1.20;;;3.70;99.90;;;;;;6389289;27;20313;-67
2022/11/18 12:56:42;;;;;;;1.20;1.20;;;3.60;99.90;;;;;;6386701;27;20288;-68
2022/11/18 12:59:47;;;;;;;1.00;1.00;;;3.60;99.90;;;;;;6384318;27;20489;-67
2022/11/18 13:02:53;;;;;;;1.00;1.00;;;3.50;99.90;;;;;;6388811;27;20568;-67
2022/11/18 13:06:07;;;;;;;1.20;1.20;;;3.50;99.90;;;;;;6389397;27;20268;-67
2022/11/18 13:09:17;;;;;;;0.90;0.90;;;3.40;99.90;;;;;;6388500;27;20300;-67
2022/11/18 13:12:26;;;;;;;0.93;0.93;;;3.50;99.90;;;;;;6388746;27;20292;-67
2022/11/18 13:18:55;;;;;;;1.20;1.20;;;3.60;99.90;;;;;;6388342;27;20289;-67
2022/11/18 13:25:27;;;;;;;1.10;1.10;;;3.50;99.90;;;;;;6388509;27;20269;-67
2022/11/18 13:28:36;;;;;;;1.47;1.07;;;3.40;99.90;;;;;;6388171;27;20297;-67
2022/11/18 13:31:47;;;;;;;1.00;1.00;;;3.50;99.90;;;;;;6388650;27;20366;-67
2022/11/18 13:34:54;;;;;;;1.00;1.00;;;3.40;99.90;;;;;;6387622;27;20431;-67
2022/11/18 13:38:01;;;;;;;0.90;0.90;;;3.30;99.90;;;;;;6387834;27;20291;-67
2022/11/18 13:41:21;;;;;;;1.80;0.90;;;3.20;99.90;;;;;;6388446;27;20281;-67
2022/11/18 13:44:28;;;;;;;1.30;1.30;;;3.20;99.90;;;;;;6388130;27;20289;-67
2022/11/18 13:47:37;;;;;;;1.23;0.93;;;3.20;99.90;;;;;;6387867;27;20289;-67
2022/11/18 13:50:46;;;;;;;2.37;1.17;;;3.20;99.90;;;;;;6388002;27;20556;-66
2022/11/18 13:53:51;;;;;;;1.23;1.23;;;3.10;99.90;;;;;;6369650;27;20291;-67
2022/11/18 13:56:57;;;;;;;0.93;0.93;;;3.10;99.90;;;;;;6387980;27;20268;-67
2022/11/18 14:00:06;;;;;;;1.20;1.20;;;3.00;99.90;;;;;;6387679;27;20275;-67
2022/11/18 14:03:24;;;;;;;1.47;1.10;;;2.90;99.90;;;;;;6386830;27;20291;-67
2022/11/18 14:06:31;;;;;;;1.00;1.00;;;2.90;99.90;;;;;;6387419;27;20265;-67
2022/11/18 14:09:35;;;;;;;1.00;0.90;;;2.90;99.90;;;;;;6386798;27;20349;-67
2022/11/18 14:12:42;;;;;;;1.00;1.00;;;2.80;99.90;;;;;;6386995;27;20291;-67
2022/11/18 14:15:47;;;;;;;0.80;0.80;;;2.70;99.90;;;;;;6387918;27;20263;-67
2022/11/18 14:18:52;;;;;;;1.37;1.10;;;2.80;99.90;;;;;;6387121;27;20622;-67
2022/11/18 14:22:05;;;;;;;1.00;1.00;;;2.80;99.90;;;;;;6386980;27;20267;-68
2022/11/18 14:25:19;;;;;;;0.90;0.90;;;2.70;99.90;;;;;;6387234;27;20267;-68
2022/11/18 14:28:27;;;;;;;0.87;0.87;;;2.80;99.90;;;;;;6387216;27;20294;-68
2022/11/18 14:31:32;;;;;;;1.20;1.00;;;2.80;99.90;;;;;;6387519;27;20296;-68
2022/11/18 14:34:37;;;;;;;1.00;1.00;;;2.70;99.90;;;;;;6386676;27;20288;-68
2022/11/18 14:37:42;;;;;;;0.97;0.97;;;2.70;99.90;;;;;;6386822;27;20454;-68
2022/11/18 14:40:46;;;;;;;1.00;1.00;;;2.60;99.90;;;;;;6386945;27;20472;-68
2022/11/18 14:43:53;;;;;;;2.47;0.83;;;2.70;99.90;;;;;;6386073;27;20296;-68
2022/11/18 14:47:00;;;;;;;1.10;1.10;;;2.60;99.90;;;;;;6386484;27;20260;-67
2022/11/18 14:50:09;;;;;;;1.00;1.00;;;2.60;99.90;;;;;;6386526;27;20295;-66
2022/11/18 14:53:14;;;;;;;0.97;0.97;;;2.60;99.90;;;;;;6385657;27;20299;-67
2022/11/18 14:56:24;;;;;;;0.87;0.87;;;2.60;99.90;;;;;;6386985;27;20271;-67
2022/11/18 14:59:31;;;;;;;1.20;1.20;;;2.60;99.90;;;;;;6386356;27;20300;-68
2022/11/18 15:02:36;;;;;;;1.17;1.17;;;2.70;99.90;;;;;;6386054;27;20290;-68
2022/11/18 15:05:40;;;;;;;1.13;1.13;;;2.60;99.90;;;;;;6386754;27;20264;-68
2022/11/18 15:08:48;;;;;;;1.03;1.03;;;2.60;99.90;;;;;;6386190;27;20292;-67
2022/11/18 15:11:52;;;;;;;0.90;0.90;;;2.60;99.90;;;;;;6385689;27;20582;-66
2022/11/18 15:14:59;;;;;;;1.00;1.00;;;2.60;99.90;;;;;;6385712;27;20272;-67
2022/11/18 15:18:04;;;;;;;1.00;1.00;;;2.60;99.90;;;;;;6386143;28;20296;-67
2022/11/18 15:21:09;;;;;;;1.10;1.10;;;2.60;99.90;;;;;;6386390;28;20275;-67
2022/11/18 15:24:14;;;;;;;1.43;0.90;;;2.60;99.90;;;;;;6385780;28;20297;-66
2022/11/18 15:27:20;;;;;;;1.10;1.10;;;2.70;99.90;;;;;;6385839;28;20288;-67
2022/11/18 15:30:26;;;;;;;1.40;0.90;;;2.70;99.90;;;;;;6386531;28;20483;-67
2022/11/18 15:33:31;;;;;;;1.43;1.20;;;2.80;99.90;;;;;;6385696;28;20296;-67
2022/11/18 15:36:35;;;;;;;1.20;1.20;;;2.80;99.90;;;;;;6386267;28;20275;-67
2022/11/18 15:39:40;;;;;;;1.20;1.20;;;2.80;99.90;;;;;;6385436;28;20292;-67
2022/11/18 15:42:45;;;;;;;1.47;1.47;;;2.70;99.90;;;;;;6386035;28;20290;-67
2022/11/18 15:45:59;;;;;;;2.10;2.00;;;2.70;99.90;;;;;;6386296;28;20272;-67
2022/11/18 15:49:04;;;;;;;2.77;2.60;;;2.80;99.90;;;;;;6385554;28;20540;-66
2022/11/18 15:52:13;;;;;;;2.00;1.53;;;2.70;99.90;;;;;;6385322;28;20295;-67
2022/11/18 15:55:18;;;;;;;1.63;1.53;;;2.80;99.90;;;;;;6386233;28;20264;-67
2022/11/18 15:58:26;;;;;;;2.07;2.07;;;2.80;99.90;;;;;;6385114;28;20301;-67
2022/11/18 16:01:41;;;;;;;1.90;1.90;;;2.90;99.90;;;;;;6385477;28;20497;-67
2022/11/18 16:04:46;;;;;;;1.60;1.60;;;2.80;99.90;;;;;;6387797;27;20289;-68
2022/11/18 16:07:51;;;;;;;1.40;1.30;;;2.90;99.90;;;;;;6390107;27;20591;-67
2022/11/18 16:14:23;;;;;;;1.47;1.47;;;2.70;99.90;;;;;;6390263;27;20298;-67
2022/11/18 16:17:29;;;;;;;1.30;1.30;;;2.80;99.90;;;;;;6389769;27;20295;-68
2022/11/18 16:20:33;;;;;;;2.20;2.20;;;2.80;99.90;;;;;;6390588;27;20574;-67
2022/11/18 16:23:38;;;;;;;1.30;1.30;;;2.70;99.90;;;;;;6371689;27;20317;-67
2022/11/18 16:26:43;;;;;;;1.67;1.50;;;2.80;99.90;;;;;;6390139;27;20261;-67
2022/11/18 16:29:48;;;;;;;3.33;3.23;;;2.80;99.90;;;;;;6389992;27;20329;-66
2022/11/18 16:32:54;;;;;;;1.80;1.30;;;2.80;99.90;;;;;;6389625;27;20299;-67
2022/11/18 16:35:59;;;;;;;1.20;1.20;;;2.80;99.90;;;;;;6389634;27;20276;-67
2022/11/18 16:39:06;;;;;;;1.93;1.20;;;2.70;99.90;;;;;;6389314;27;20312;-67
2022/11/18 16:42:12;;;;;;;1.20;1.20;;;2.80;99.90;;;;;;6389596;27;20274;-67
2022/11/18 16:45:17;;;;;;;1.30;1.30;;;2.80;99.90;;;;;;6390047;27;20267;-67
2022/11/18 16:48:23;;;;;;;1.30;1.30;;;2.80;99.90;;;;;;6389578;27;20295;-67
2022/11/18 16:51:30;;;;;;;1.50;1.50;;;2.90;99.90;;;;;;6389174;27;20294;-67
2022/11/18 16:54:35;;;;;;;1.20;1.20;;;2.90;99.90;;;;;;6389287;27;20295;-67
2022/11/18 16:57:47;;;;;;;2.83;1.10;;;2.80;99.90;;;;;;6388085;27;20449;-67
2022/11/18 17:00:52;;;;;;;1.50;1.50;;;2.80;99.90;;;;;;6389643;27;20278;-67
2022/11/18 17:04:19;;;;;;;2.90;2.77;;;2.80;99.90;;;;;;6388824;27;20288;-67
2022/11/18 17:07:24;;;;;;;1.23;1.23;;;2.90;99.90;;;;;;6388354;27;20295;-67